createdAt,value
2022-08-20T00:00:21.255Z,6.97
2022-08-20T00:03:28.171Z,8.35
2022-08-20T00:06:31.329Z,7.18
2022-08-20T00:09:36.503Z,7.50
2022-08-20T00:12:46.481Z,7.47
2022-08-20T00:15:50.439Z,7.88
2022-08-20T00:18:53.866Z,7.75
2022-08-20T00:21:58.327Z,7.05
2022-08-20T00:25:03.662Z,7.78
2022-08-20T00:28:07.523Z,7.32
2022-08-20T00:31:12.986Z,7.03
2022-08-20T00:34:16.135Z,7.05
2022-08-20T00:37:19.333Z,7.45
2022-08-20T00:40:27.958Z,7.93
2022-08-20T00:43:35.748Z,7.70
2022-08-20T00:46:40.935Z,7.43
2022-08-20T00:49:45.504Z,7.72
2022-08-20T00:52:51.978Z,7.45
2022-08-20T00:55:56.994Z,7.75
2022-08-20T00:59:00.770Z,7.63
2022-08-20T01:02:07.617Z,7.40
2022-08-20T01:05:11.695Z,7.20
2022-08-20T01:08:16.858Z,7.32
2022-08-20T01:11:23.132Z,7.47
2022-08-20T01:14:31.827Z,7.60
2022-08-20T01:17:37.794Z,6.78
2022-08-20T01:20:44.363Z,7.40
2022-08-20T01:23:55.390Z,6.95
2022-08-20T01:27:04.051Z,7.03
2022-08-20T01:30:09.163Z,6.93
2022-08-20T01:33:12.436Z,7.25
2022-08-20T01:36:17.201Z,6.72
2022-08-20T01:39:25.922Z,6.70
2022-08-20T01:42:34.818Z,7.25
2022-08-20T01:45:40.092Z,7.10
2022-08-20T01:48:44.218Z,7.07
2022-08-20T01:51:47.386Z,7.38
2022-08-20T01:54:52.510Z,7.22
2022-08-20T01:57:58.040Z,7.82
2022-08-20T02:01:01.330Z,7.07
2022-08-20T02:04:06.786Z,7.22
2022-08-20T02:07:21.384Z,7.43
2022-08-20T02:10:24.507Z,6.88
2022-08-20T02:13:29.154Z,7.28
2022-08-20T02:16:37.723Z,6.97
2022-08-20T02:19:45.059Z,7.43
2022-08-20T02:22:51.382Z,8.02
2022-08-20T02:25:54.414Z,8.05
2022-08-20T02:29:01.055Z,7.13
2022-08-20T02:32:24.519Z,6.97
2022-08-20T02:35:29.686Z,7.38
2022-08-20T02:38:34.855Z,7.10
2022-08-20T02:41:39.123Z,7.20
2022-08-20T02:44:43.597Z,6.97
2022-08-20T02:47:47.663Z,7.63
2022-08-20T02:50:53.985Z,6.85
2022-08-20T02:53:57.046Z,7.90
2022-08-20T02:57:00.082Z,8.00
2022-08-20T03:00:06.591Z,7.38
2022-08-20T03:03:11.323Z,7.60
2022-08-20T03:06:14.774Z,7.57
2022-08-20T03:09:17.837Z,7.40
2022-08-20T03:12:20.834Z,7.38
2022-08-20T03:15:25.282Z,7.88
2022-08-20T03:18:32.072Z,7.60
2022-08-20T03:21:35.281Z,8.23
2022-08-20T03:24:38.761Z,7.65
2022-08-20T03:27:41.875Z,8.05
2022-08-20T03:30:47.244Z,8.48
2022-08-20T03:33:53.299Z,8.35
2022-08-20T03:36:56.805Z,8.35
2022-08-20T03:40:00.335Z,8.60
2022-08-20T03:43:04.395Z,8.80
2022-08-20T03:46:22.124Z,9.55
2022-08-20T03:49:26.766Z,8.98
2022-08-20T03:52:30.197Z,8.98
2022-08-20T03:55:33.822Z,9.05
2022-08-20T03:58:36.942Z,10.02
2022-08-20T04:01:46.282Z,8.70
2022-08-20T04:04:49.933Z,9.02
2022-08-20T04:07:53.305Z,9.40
2022-08-20T04:10:59.731Z,8.93
2022-08-20T04:14:02.746Z,8.27
2022-08-20T04:17:11.698Z,9.15
2022-08-20T04:20:19.187Z,8.63
2022-08-20T04:23:23.386Z,8.07
2022-08-20T04:26:26.574Z,9.18
2022-08-20T04:29:32.114Z,9.25
2022-08-20T04:32:37.246Z,9.77
2022-08-20T04:35:41.349Z,9.38
2022-08-20T04:38:50.467Z,9.65
2022-08-20T04:41:54.058Z,9.63
2022-08-20T04:44:57.058Z,9.25
2022-08-20T04:48:05.429Z,9.60
2022-08-20T04:51:10.309Z,9.65
2022-08-20T04:54:14.604Z,9.48
2022-08-20T04:57:17.609Z,9.73
2022-08-20T05:00:20.675Z,10.18
2022-08-20T05:03:25.870Z,10.90
2022-08-20T05:06:31.724Z,9.50
2022-08-20T05:09:43.823Z,10.38
2022-08-20T05:12:56.594Z,9.82
2022-08-20T05:16:01.351Z,9.77
2022-08-20T05:19:06.763Z,9.70
2022-08-20T05:22:09.998Z,9.82
2022-08-20T05:25:13.472Z,9.73
2022-08-20T05:28:19.925Z,9.98
2022-08-20T05:31:22.863Z,9.88
2022-08-20T05:34:35.621Z,8.52
2022-08-20T05:37:41.005Z,8.73
2022-08-20T05:40:44.569Z,9.98
2022-08-20T05:43:47.648Z,9.95
2022-08-20T05:46:54.646Z,10.15
2022-08-20T05:49:59.184Z,10.00
2022-08-20T05:53:02.366Z,10.00
2022-08-20T05:56:05.413Z,9.68
2022-08-20T05:59:09.696Z,9.27
2022-08-20T06:02:26.518Z,9.95
2022-08-20T06:05:30.850Z,9.63
2022-08-20T06:08:33.941Z,9.30
2022-08-20T06:11:37.596Z,9.18
2022-08-20T06:14:40.690Z,9.40
2022-08-20T06:17:43.681Z,9.00
2022-08-20T06:20:48.071Z,9.40
2022-08-20T06:23:56.950Z,9.10
2022-08-20T06:27:04.929Z,9.30
2022-08-20T06:30:10.339Z,8.60
2022-08-20T06:33:13.562Z,9.35
2022-08-20T06:36:18.910Z,9.00
2022-08-20T06:39:22.703Z,9.05
2022-08-20T06:42:25.718Z,8.75
2022-08-20T06:45:31.349Z,8.57
2022-08-20T06:48:35.426Z,8.55
2022-08-20T06:51:41.301Z,8.38
2022-08-20T06:54:44.525Z,8.20
2022-08-20T06:57:48.351Z,7.55
2022-08-20T07:00:51.507Z,9.35
2022-08-20T07:03:56.226Z,8.00
2022-08-20T07:07:00.862Z,7.88
2022-08-20T07:10:05.974Z,7.78
2022-08-20T07:13:09.281Z,7.63
2022-08-20T07:16:13.449Z,8.18
2022-08-20T07:19:16.702Z,6.93
2022-08-20T07:22:21.151Z,7.45
2022-08-20T07:25:24.956Z,7.43
2022-08-20T07:28:29.690Z,7.63
2022-08-20T07:31:50.337Z,7.43
2022-08-20T07:34:53.444Z,7.68
2022-08-20T07:37:57.870Z,7.30
2022-08-20T07:41:03.597Z,8.10
2022-08-20T07:44:06.663Z,7.45
2022-08-20T07:47:09.709Z,7.60
2022-08-20T07:50:15.357Z,6.85
2022-08-20T07:53:19.803Z,7.30
2022-08-20T07:56:24.759Z,7.60
2022-08-20T07:59:27.781Z,7.03
2022-08-20T08:02:30.859Z,7.38
2022-08-20T08:05:35.699Z,7.47
2022-08-20T08:08:41.401Z,7.70
2022-08-20T08:11:49.997Z,7.88
2022-08-20T08:14:54.449Z,7.45
2022-08-20T08:18:01.301Z,7.43
2022-08-20T08:21:06.025Z,7.57
2022-08-20T08:24:12.696Z,8.50
2022-08-20T08:27:18.602Z,7.30
2022-08-20T08:30:21.654Z,8.30
2022-08-20T08:33:30.821Z,8.00
2022-08-20T08:36:33.842Z,7.75
2022-08-20T08:39:38.688Z,8.45
2022-08-20T08:42:45.782Z,7.47
2022-08-20T08:45:57.379Z,8.32
2022-08-20T08:49:02.835Z,8.13
2022-08-20T08:52:12.331Z,8.48
2022-08-20T08:55:21.583Z,8.85
2022-08-20T08:58:24.587Z,8.23
2022-08-20T09:01:54.652Z,7.82
2022-08-20T09:04:56.014Z,8.07
2022-08-20T09:08:00.090Z,8.52
2022-08-20T09:11:08.242Z,8.38
2022-08-20T09:14:11.491Z,9.45
2022-08-20T09:17:15.292Z,8.77
2022-08-20T09:20:19.383Z,8.85
2022-08-20T09:23:22.365Z,9.05
2022-08-20T09:26:29.092Z,9.20
2022-08-20T09:29:32.726Z,14.93
2022-08-20T09:32:35.961Z,15.85
2022-08-20T09:35:40.334Z,14.45
2022-08-20T09:38:43.418Z,12.73
2022-08-20T09:41:47.797Z,11.73
2022-08-20T09:44:51.563Z,10.90
2022-08-20T09:47:55.441Z,10.85
2022-08-20T09:51:13.649Z,9.60
2022-08-20T09:54:16.758Z,9.15
2022-08-20T09:57:21.203Z,9.13
2022-08-20T10:00:24.237Z,9.40
2022-08-20T10:03:27.363Z,9.55
2022-08-20T10:06:32.511Z,9.05
2022-08-20T10:09:40.006Z,7.43
2022-08-20T10:12:45.974Z,8.75
2022-08-20T10:15:49.170Z,8.20
2022-08-20T10:18:52.906Z,8.30
2022-08-20T10:21:56.121Z,9.73
2022-08-20T10:24:59.298Z,10.40
2022-08-20T10:28:04.167Z,10.18
2022-08-20T10:31:08.016Z,9.80
2022-08-20T10:34:11.205Z,10.93
2022-08-20T10:37:16.866Z,9.73
2022-08-20T10:40:20.038Z,8.32
2022-08-20T10:43:24.526Z,7.97
2022-08-20T10:46:27.805Z,8.88
2022-08-20T10:49:34.962Z,8.43
2022-08-20T10:52:37.988Z,8.45
2022-08-20T10:55:41.258Z,9.23
2022-08-20T10:58:45.737Z,8.57
2022-08-20T11:01:48.722Z,9.35
2022-08-20T11:04:52.701Z,8.63
2022-08-20T11:07:56.862Z,8.57
2022-08-20T11:11:00.036Z,9.00
2022-08-20T11:14:04.389Z,8.98
2022-08-20T11:17:09.555Z,8.60
2022-08-20T11:20:14.861Z,8.43
2022-08-20T11:23:18.120Z,8.40
2022-08-20T11:26:24.336Z,8.45
2022-08-20T11:29:33.430Z,8.85
2022-08-20T11:32:37.046Z,7.65
2022-08-20T11:35:49.484Z,7.43
2022-08-20T11:38:53.251Z,7.32
2022-08-20T11:41:56.358Z,7.20
2022-08-20T11:45:00.766Z,6.43
2022-08-20T11:48:04.082Z,6.28
2022-08-20T11:51:07.561Z,6.68
2022-08-20T11:54:10.609Z,6.50
2022-08-20T11:57:14.871Z,6.32
2022-08-20T12:00:29.274Z,5.80
2022-08-20T12:03:36.006Z,5.70
2022-08-20T12:06:39.015Z,5.65
2022-08-20T12:09:50.970Z,5.40
2022-08-20T12:12:54.503Z,5.43
2022-08-20T12:15:59.252Z,5.82
2022-08-20T12:19:02.329Z,5.45
2022-08-20T12:22:23.166Z,5.53
2022-08-20T12:25:28.206Z,5.40
2022-08-20T12:28:31.642Z,5.07
2022-08-20T12:31:36.115Z,5.55
2022-08-20T12:34:41.658Z,4.95
2022-08-20T12:37:45.833Z,5.40
2022-08-20T12:40:50.459Z,6.03
2022-08-20T12:43:53.477Z,6.72
2022-08-20T12:47:08.936Z,6.22
2022-08-20T12:50:14.246Z,6.00
2022-08-20T12:53:17.533Z,5.85
2022-08-20T12:56:20.641Z,5.20
2022-08-20T12:59:26.116Z,4.85
2022-08-20T13:02:30.649Z,4.68
2022-08-20T13:05:35.641Z,6.63
2022-08-20T13:08:38.613Z,5.05
2022-08-20T13:11:42.589Z,5.32
2022-08-20T13:14:45.795Z,4.88
2022-08-20T13:17:53.406Z,4.30
2022-08-20T13:20:57.013Z,4.45
2022-08-20T13:23:59.976Z,4.43
2022-08-20T13:27:08.686Z,4.35
2022-08-20T13:30:15.641Z,4.28
2022-08-20T13:33:20.038Z,4.28
2022-08-20T13:36:23.302Z,4.03
2022-08-20T13:39:26.423Z,4.10
2022-08-20T13:42:29.631Z,4.13
2022-08-20T13:45:32.650Z,4.35
2022-08-20T13:48:37.151Z,5.00
2022-08-20T13:51:40.223Z,6.72
2022-08-20T13:54:43.282Z,6.03
2022-08-20T13:57:46.478Z,6.03
2022-08-20T14:00:50.385Z,5.45
2022-08-20T14:03:54.905Z,5.03
2022-08-20T14:06:59.326Z,4.60
2022-08-20T14:10:07.140Z,4.65
2022-08-20T14:13:15.094Z,3.92
2022-08-20T14:16:27.228Z,4.28
2022-08-20T14:19:32.519Z,4.45
2022-08-20T14:22:36.751Z,4.38
2022-08-20T14:25:40.459Z,4.28
2022-08-20T14:28:43.478Z,4.40
2022-08-20T14:31:46.505Z,4.40
2022-08-20T14:34:50.903Z,4.80
2022-08-20T14:37:55.481Z,4.20
2022-08-20T14:40:58.642Z,4.97
2022-08-20T14:44:01.741Z,4.80
2022-08-20T14:47:16.933Z,5.03
2022-08-20T14:50:25.065Z,5.30
2022-08-20T14:53:28.237Z,5.00
2022-08-20T14:56:31.315Z,4.80
2022-08-20T14:59:34.526Z,4.72
2022-08-20T15:02:38.907Z,5.47
2022-08-20T15:05:44.068Z,5.22
2022-08-20T15:08:47.737Z,4.70
2022-08-20T15:11:50.879Z,4.95
2022-08-20T15:14:54.314Z,5.18
2022-08-20T15:18:00.992Z,5.25
2022-08-20T15:21:05.422Z,5.38
2022-08-20T15:24:18.919Z,5.80
2022-08-20T15:27:25.990Z,5.40
2022-08-20T15:30:30.855Z,4.85
2022-08-20T15:33:33.833Z,4.95
2022-08-20T15:36:38.210Z,5.28
2022-08-20T15:39:45.539Z,5.28
2022-08-20T15:42:48.726Z,5.18
2022-08-20T15:45:51.743Z,5.32
2022-08-20T15:48:54.842Z,5.13
2022-08-20T15:51:59.817Z,5.25
2022-08-20T15:55:03.722Z,5.72
2022-08-20T15:58:15.846Z,5.28
2022-08-20T16:01:26.061Z,5.68
2022-08-20T16:04:52.868Z,5.35
2022-08-20T16:08:06.674Z,5.78
2022-08-20T16:11:23.149Z,5.55
2022-08-20T16:14:29.210Z,7.07
2022-08-20T16:17:38.468Z,7.35
2022-08-20T16:20:44.198Z,6.53
2022-08-20T16:23:52.538Z,6.28
2022-08-20T16:27:13.636Z,5.88
2022-08-20T16:30:21.973Z,5.57
2022-08-20T16:33:31.526Z,6.25
2022-08-20T16:36:39.134Z,5.63
2022-08-20T16:39:54.269Z,5.97
2022-08-20T16:43:00.758Z,6.28
2022-08-20T16:46:07.418Z,8.32
2022-08-20T16:49:14.395Z,9.55
2022-08-20T16:52:17.568Z,8.77
2022-08-20T16:55:25.121Z,7.63
2022-08-20T16:58:28.562Z,7.65
2022-08-20T17:01:31.767Z,7.53
2022-08-20T17:04:36.255Z,7.07
2022-08-20T17:07:46.298Z,7.63
2022-08-20T17:11:01.422Z,6.68
2022-08-20T17:14:09.031Z,5.80
2022-08-20T17:17:20.519Z,6.40
2022-08-20T17:20:28.048Z,7.03
2022-08-20T17:23:49.203Z,5.85
2022-08-20T17:27:02.682Z,5.90
2022-08-20T17:30:11.641Z,5.38
2022-08-20T17:33:30.640Z,6.18
2022-08-20T17:36:34.386Z,5.70
2022-08-20T17:39:47.104Z,5.80
2022-08-20T17:42:54.016Z,5.63
2022-08-20T17:45:59.234Z,5.97
2022-08-20T17:49:09.145Z,5.82
2022-08-20T17:52:17.166Z,5.95
2022-08-20T17:55:21.210Z,5.97
2022-08-20T17:58:33.295Z,5.30
2022-08-20T18:01:36.454Z,5.90
2022-08-20T18:04:39.663Z,5.72
2022-08-20T18:07:57.253Z,5.85
2022-08-20T18:11:07.800Z,5.53
2022-08-20T18:14:35.202Z,5.80
2022-08-20T18:18:07.479Z,5.68
2022-08-20T18:21:27.013Z,5.47
2022-08-20T18:24:37.716Z,6.00
2022-08-20T18:27:45.413Z,5.70
2022-08-20T18:30:52.724Z,5.95
2022-08-20T18:33:55.901Z,5.85
2022-08-20T18:37:01.542Z,5.80
2022-08-20T18:40:17.276Z,5.80
2022-08-20T18:43:30.561Z,5.70
2022-08-20T18:46:35.934Z,5.65
2022-08-20T18:49:41.106Z,5.85
2022-08-20T18:52:46.410Z,6.03
2022-08-20T18:56:02.178Z,6.60
2022-08-20T18:59:10.661Z,5.88
2022-08-20T19:02:24.134Z,5.57
2022-08-20T19:05:32.404Z,5.50
2022-08-20T19:08:54.333Z,5.47
2022-08-20T19:12:16.101Z,5.53
2022-08-20T19:15:21.120Z,5.57
2022-08-20T19:18:31.952Z,4.95
2022-08-20T19:21:36.424Z,4.85
2022-08-20T19:24:44.176Z,5.57
2022-08-20T19:27:47.334Z,5.38
2022-08-20T19:30:50.714Z,4.85
2022-08-20T19:34:18.968Z,5.28
2022-08-20T19:37:35.330Z,5.47
2022-08-20T19:40:46.169Z,5.00
2022-08-20T19:43:49.975Z,5.45
2022-08-20T19:46:53.583Z,5.10
2022-08-20T19:50:14.611Z,5.35
2022-08-20T19:53:29.982Z,5.15
2022-08-20T19:56:41.290Z,5.38
2022-08-20T19:59:53.355Z,5.32
2022-08-20T20:02:56.784Z,5.25
2022-08-20T20:06:03.739Z,6.00
2022-08-20T20:09:22.151Z,4.88
2022-08-20T20:12:25.851Z,5.40
2022-08-20T20:15:28.925Z,5.00
2022-08-20T20:18:37.164Z,5.40
2022-08-20T20:21:44.246Z,5.50
2022-08-20T20:24:49.958Z,5.10
2022-08-20T20:27:55.956Z,5.22
2022-08-20T20:31:07.360Z,4.72
2022-08-20T20:34:14.463Z,4.93
2022-08-20T20:37:49.600Z,5.07
2022-08-20T20:40:56.477Z,4.90
2022-08-20T20:44:02.700Z,5.15
2022-08-20T20:47:09.373Z,5.07
2022-08-20T20:50:13.314Z,5.00
2022-08-20T20:53:35.085Z,5.47
2022-08-20T20:57:03.003Z,5.18
2022-08-20T21:00:08.750Z,5.15
2022-08-20T21:03:11.705Z,5.50
2022-08-20T21:06:14.986Z,5.05
2022-08-20T21:09:19.750Z,5.28
2022-08-20T21:12:22.863Z,4.95
2022-08-20T21:15:27.225Z,4.93
2022-08-20T21:18:31.810Z,4.70
2022-08-20T21:21:35.085Z,4.93
2022-08-20T21:24:39.511Z,4.65
2022-08-20T21:27:46.646Z,4.78
2022-08-20T21:30:51.559Z,5.05
2022-08-20T21:34:01.899Z,5.20
2022-08-20T21:37:04.977Z,5.57
2022-08-20T21:40:11.274Z,5.45
2022-08-20T21:43:14.445Z,5.47
2022-08-20T21:46:18.297Z,5.85
2022-08-20T21:49:30.831Z,7.63
2022-08-20T21:52:34.292Z,5.95
2022-08-20T21:55:40.710Z,5.57
2022-08-20T21:58:45.326Z,5.88
2022-08-20T22:01:48.785Z,5.78
2022-08-20T22:04:51.761Z,6.22
2022-08-20T22:07:57.054Z,5.22
2022-08-20T22:11:02.744Z,5.93
2022-08-20T22:14:08.282Z,6.20
2022-08-20T22:17:11.367Z,5.65
2022-08-20T22:20:14.407Z,6.15
2022-08-20T22:23:17.534Z,6.10
2022-08-20T22:26:22.494Z,6.32
2022-08-20T22:29:30.594Z,5.40
2022-08-20T22:32:51.621Z,5.82
2022-08-20T22:35:57.657Z,5.82
2022-08-20T22:39:01.468Z,5.57
2022-08-20T22:42:06.631Z,6.00
2022-08-20T22:45:14.516Z,5.75
2022-08-20T22:48:20.169Z,6.03
2022-08-20T22:51:28.173Z,5.18
2022-08-20T22:54:31.473Z,5.40
2022-08-20T22:57:35.844Z,5.28
2022-08-20T23:00:39.720Z,5.00
2022-08-20T23:03:42.786Z,5.15
2022-08-20T23:06:46.078Z,4.60
2022-08-20T23:09:49.456Z,4.60
2022-08-20T23:12:53.916Z,4.85
2022-08-20T23:15:57.305Z,4.55
2022-08-20T23:19:00.957Z,4.43
2022-08-20T23:22:04.070Z,4.30
2022-08-20T23:25:09.653Z,4.60
2022-08-20T23:28:14.141Z,4.53
2022-08-20T23:31:17.351Z,4.50
2022-08-20T23:34:20.513Z,4.22
2022-08-20T23:37:23.601Z,3.70
2022-08-20T23:40:28.665Z,4.22
2022-08-20T23:43:33.270Z,3.90
2022-08-20T23:46:37.838Z,3.90
2022-08-20T23:49:40.870Z,3.80
2022-08-20T23:52:44.297Z,4.03
2022-08-20T23:55:47.342Z,4.00
2022-08-20T23:58:51.762Z,4.45
